Time;durP1;ratioP1;P1;durP2;ratioP2;P2;SDS_P1;SDS_P2;PMS_P1;PMS_P2;Temp;Humidity;BMP_temperature;BMP_pressure;BME280_temperature;BME280_humidity;BME280_pressure;Samples;Min_cycle;Max_cycle;Signal;HPM_P1;HPM_P2
2021/09/08 00:01:57;;;;;;;0.85;0.85;;;14.40;99.90;;;;;;4383882;32;20085;-66
2021/09/08 00:04:23;;;;;;;2.28;1.08;;;14.40;99.90;;;;;;4383717;32;20464;-67
2021/09/08 00:06:48;;;;;;;4.47;0.70;;;14.30;99.90;;;;;;4383638;32;20170;-66
2021/09/08 00:09:16;;;;;;;2.75;1.10;;;14.30;99.90;;;;;;4383764;32;20066;-66
2021/09/08 00:11:42;;;;;;;1.50;0.70;;;14.30;99.90;;;;;;4393824;32;20070;-66
2021/09/08 00:14:07;;;;;;;0.50;0.50;;;14.20;99.90;;;;;;4397457;32;20070;-66
2021/09/08 00:16:33;;;;;;;0.70;0.70;;;14.20;99.90;;;;;;4398352;32;20133;-66
2021/09/08 00:18:58;;;;;;;3.33;2.10;;;14.30;99.90;;;;;;4398796;32;20082;-66
2021/09/08 00:21:23;;;;;;;5.37;0.98;;;14.40;99.90;;;;;;4397822;32;20081;-66
2021/09/08 00:23:49;;;;;;;0.75;0.65;;;14.40;99.90;;;;;;4398443;32;20081;-66
2021/09/08 00:26:14;;;;;;;0.60;0.60;;;14.30;99.90;;;;;;4398820;32;20061;-66
2021/09/08 00:28:40;;;;;;;1.45;0.82;;;14.30;99.90;;;;;;4397035;32;20130;-66
2021/09/08 00:31:05;;;;;;;0.85;0.85;;;14.20;99.90;;;;;;4398394;32;20078;-66
2021/09/08 00:33:31;;;;;;;3.37;1.40;;;14.20;99.90;;;;;;4398146;32;20127;-66
2021/09/08 00:35:56;;;;;;;7.07;1.42;;;14.20;99.90;;;;;;4389194;32;20579;-66
2021/09/08 00:38:22;;;;;;;1.42;0.93;;;14.20;99.90;;;;;;4382646;32;20349;-66
2021/09/08 00:40:47;;;;;;;0.62;0.62;;;14.20;99.90;;;;;;4385521;32;20139;-66
2021/09/08 00:43:13;;;;;;;3.10;1.12;;;14.20;99.90;;;;;;4384466;32;20419;-67
2021/09/08 00:45:38;;;;;;;1.20;0.90;;;14.20;99.90;;;;;;4385073;32;20095;-66
2021/09/08 00:48:04;;;;;;;1.45;0.68;;;14.30;99.90;;;;;;4384789;32;20086;-66
2021/09/08 00:50:30;;;;;;;1.23;0.93;;;14.40;99.90;;;;;;4385229;32;20066;-66
2021/09/08 00:52:58;;;;;;;1.75;0.93;;;14.30;99.90;;;;;;4385633;32;20074;-66
2021/09/08 00:55:26;;;;;;;0.75;0.62;;;14.30;99.90;;;;;;4385943;32;20125;-66
2021/09/08 00:57:51;;;;;;;3.20;0.65;;;14.30;99.90;;;;;;4385584;32;20082;-66
2021/09/08 01:00:17;;;;;;;1.30;0.82;;;14.30;99.90;;;;;;4384413;32;20066;-66
2021/09/08 01:02:43;;;;;;;0.62;0.62;;;14.30;99.90;;;;;;4384946;32;20066;-65
2021/09/08 01:05:09;;;;;;;1.83;0.90;;;14.30;99.90;;;;;;4385620;32;20504;-66
2021/09/08 01:07:35;;;;;;;0.95;0.88;;;14.20;99.90;;;;;;4384916;32;20083;-66
2021/09/08 01:10:01;;;;;;;1.10;0.82;;;14.20;99.90;;;;;;4385388;32;20183;-66
2021/09/08 01:12:26;;;;;;;1.87;1.00;;;14.20;99.90;;;;;;4400101;32;20095;-66
2021/09/08 01:14:52;;;;;;;1.60;0.93;;;14.20;99.90;;;;;;4401078;32;20071;-66
2021/09/08 01:17:19;;;;;;;2.12;1.27;;;14.20;99.90;;;;;;4400811;32;20134;-66
2021/09/08 01:19:44;;;;;;;0.80;0.80;;;14.20;99.90;;;;;;4398986;32;20070;-66
2021/09/08 01:22:10;;;;;;;1.08;0.88;;;14.20;99.90;;;;;;4399702;32;20120;-66
2021/09/08 01:24:35;;;;;;;2.40;0.88;;;14.20;99.90;;;;;;4387268;32;20110;-66
2021/09/08 01:27:03;;;;;;;2.60;1.35;;;14.20;99.90;;;;;;4400267;32;20074;-66
2021/09/08 01:29:29;;;;;;;1.35;1.00;;;14.10;99.90;;;;;;4398891;32;20109;-66
2021/09/08 01:31:56;;;;;;;1.40;0.80;;;14.10;99.90;;;;;;4399169;32;20090;-66
2021/09/08 01:34:23;;;;;;;1.52;1.05;;;14.10;99.90;;;;;;4401268;32;20066;-66
2021/09/08 01:36:48;;;;;;;0.93;0.77;;;14.10;99.90;;;;;;4385966;32;20074;-66
2021/09/08 01:39:17;;;;;;;0.82;0.70;;;13.90;99.90;;;;;;4384619;32;20440;-66
2021/09/08 01:41:43;;;;;;;1.85;0.75;;;14.00;99.90;;;;;;4385474;32;20070;-66
2021/09/08 01:44:08;;;;;;;0.68;0.68;;;14.00;99.90;;;;;;4384890;32;20074;-66
2021/09/08 01:46:34;;;;;;;0.68;0.68;;;13.90;99.90;;;;;;4384412;32;20070;-66
2021/09/08 01:48:59;;;;;;;2.35;1.27;;;13.90;99.90;;;;;;4384602;32;20079;-66
2021/09/08 01:51:25;;;;;;;1.00;1.00;;;13.80;99.90;;;;;;4385054;32;20538;-66
2021/09/08 01:53:50;;;;;;;1.08;0.93;;;13.80;99.90;;;;;;4383961;32;20125;-66
2021/09/08 01:56:16;;;;;;;0.50;0.50;;;13.80;99.90;;;;;;4384851;32;20133;-66
2021/09/08 01:58:42;;;;;;;1.17;0.98;;;13.90;99.90;;;;;;4385454;32;20075;-66
2021/09/08 02:01:08;;;;;;;0.62;0.62;;;13.80;99.90;;;;;;4383586;32;20113;-65
2021/09/08 02:03:34;;;;;;;5.70;0.90;;;13.80;99.90;;;;;;4382609;32;20461;-66
2021/09/08 02:05:59;;;;;;;1.08;0.98;;;13.80;99.90;;;;;;4384997;32;20121;-66
2021/09/08 02:08:25;;;;;;;0.50;0.50;;;13.90;99.90;;;;;;4385254;32;20121;-66
2021/09/08 02:10:50;;;;;;;1.62;0.70;;;13.90;99.90;;;;;;4388989;32;20459;-66
2021/09/08 02:13:16;;;;;;;4.18;1.20;;;13.80;99.90;;;;;;4399613;32;20078;-66
2021/09/08 02:15:41;;;;;;;1.25;0.77;;;13.90;99.90;;;;;;4399122;32;20082;-65
2021/09/08 02:18:07;;;;;;;3.40;1.08;;;13.90;99.90;;;;;;4398815;32;20138;-66
2021/09/08 02:20:33;;;;;;;0.60;0.60;;;13.90;99.90;;;;;;4399412;32;20089;-66
2021/09/08 02:22:58;;;;;;;0.93;0.80;;;13.80;99.90;;;;;;4399713;32;20065;-66
2021/09/08 02:25:23;;;;;;;6.95;1.02;;;13.80;99.90;;;;;;4399868;32;20082;-66
2021/09/08 02:27:50;;;;;;;5.43;1.23;;;13.80;99.90;;;;;;4398802;32;20065;-67
2021/09/08 02:30:16;;;;;;;3.75;0.85;;;13.70;99.90;;;;;;4399374;32;20397;-66
2021/09/08 02:32:41;;;;;;;1.08;1.00;;;13.70;99.90;;;;;;4398811;32;20063;-66
2021/09/08 02:35:07;;;;;;;1.58;1.35;;;13.70;99.90;;;;;;4396116;32;20420;-66
2021/09/08 02:37:33;;;;;;;1.58;1.00;;;13.70;99.90;;;;;;4384725;32;20066;-66
2021/09/08 02:39:58;;;;;;;2.25;1.58;;;13.70;99.90;;;;;;4384963;32;20090;-66
2021/09/08 02:42:24;;;;;;;0.95;0.95;;;13.70;99.90;;;;;;4383374;32;20148;-66
2021/09/08 02:44:49;;;;;;;1.70;1.15;;;13.70;99.90;;;;;;4383622;32;20086;-66
2021/09/08 02:47:16;;;;;;;1.42;0.85;;;13.70;99.90;;;;;;4371021;32;20481;-66
2021/09/08 02:49:42;;;;;;;0.95;0.80;;;13.70;99.90;;;;;;4368646;32;20117;-66
2021/09/08 02:52:08;;;;;;;6.03;0.90;;;13.70;99.90;;;;;;4369041;32;20087;-66
2021/09/08 02:54:34;;;;;;;1.65;1.08;;;13.70;99.90;;;;;;4369097;32;20084;-66
2021/09/08 02:56:59;;;;;;;1.23;1.05;;;13.70;99.90;;;;;;4367552;32;20400;-66
2021/09/08 02:59:25;;;;;;;2.08;1.20;;;13.70;99.90;;;;;;4369393;32;20130;-66
2021/09/08 03:01:50;;;;;;;5.07;1.20;;;13.70;99.90;;;;;;4368614;32;20395;-66
2021/09/08 03:04:16;;;;;;;2.33;1.05;;;13.70;99.90;;;;;;4369491;32;20130;-65
2021/09/08 03:06:41;;;;;;;1.12;0.80;;;13.70;99.90;;;;;;4368177;32;20074;-66
2021/09/08 03:09:07;;;;;;;1.55;0.95;;;13.60;99.90;;;;;;4369396;32;20073;-66
2021/09/08 03:11:32;;;;;;;3.72;1.10;;;13.70;99.90;;;;;;4386916;32;20081;-66
2021/09/08 03:13:58;;;;;;;0.57;0.57;;;13.60;99.90;;;;;;4398920;32;20086;-66
2021/09/08 03:16:23;;;;;;;2.35;1.35;;;13.70;99.90;;;;;;4400469;32;20130;-66
2021/09/08 03:18:49;;;;;;;1.83;1.12;;;13.60;99.90;;;;;;4398834;32;20073;-66
2021/09/08 03:21:14;;;;;;;2.28;1.08;;;13.60;99.90;;;;;;4398211;32;20133;-66
2021/09/08 03:23:39;;;;;;;1.85;0.70;;;13.60;99.90;;;;;;4398977;32;20069;-66
2021/09/08 03:26:05;;;;;;;3.10;1.15;;;13.50;99.90;;;;;;4398639;32;20065;-66
2021/09/08 03:28:31;;;;;;;1.95;1.45;;;13.60;99.90;;;;;;4398188;32;20073;-66
2021/09/08 03:30:56;;;;;;;4.03;1.08;;;13.50;99.90;;;;;;4399010;32;20461;-66
2021/09/08 03:33:22;;;;;;;2.45;1.25;;;13.40;99.90;;;;;;4398824;32;20090;-66
2021/09/08 03:35:48;;;;;;;1.20;1.00;;;13.30;99.90;;;;;;4390384;32;20086;-66
2021/09/08 03:38:13;;;;;;;1.95;1.05;;;13.30;99.90;;;;;;4384268;32;20070;-66
2021/09/08 03:40:39;;;;;;;1.12;0.90;;;13.30;99.90;;;;;;4383952;32;20082;-66
2021/09/08 03:43:04;;;;;;;1.98;0.60;;;13.40;99.90;;;;;;4382248;32;20171;-65
2021/09/08 03:45:30;;;;;;;1.17;0.90;;;13.40;99.90;;;;;;4384112;32;20132;-66
2021/09/08 03:47:55;;;;;;;3.42;0.73;;;13.40;99.90;;;;;;4382943;32;20070;-65
2021/09/08 03:50:21;;;;;;;0.73;0.73;;;13.40;99.90;;;;;;4382803;32;20121;-66
2021/09/08 03:52:46;;;;;;;2.58;1.25;;;13.40;99.90;;;;;;4381703;32;20079;-66
2021/09/08 03:55:12;;;;;;;2.28;1.00;;;13.40;99.90;;;;;;4384356;32;20066;-66
2021/09/08 03:57:38;;;;;;;1.67;0.93;;;13.30;99.90;;;;;;4383768;32;20146;-66
2021/09/08 04:00:05;;;;;;;1.30;0.90;;;13.30;99.90;;;;;;4383037;32;20066;-66
2021/09/08 04:02:31;;;;;;;1.52;1.08;;;13.30;99.90;;;;;;4383675;32;20070;-66
2021/09/08 04:04:58;;;;;;;0.90;0.90;;;13.30;99.90;;;;;;4382456;32;20507;-66
2021/09/08 04:07:24;;;;;;;1.48;1.02;;;13.30;99.90;;;;;;4383789;32;20078;-66
2021/09/08 04:09:50;;;;;;;2.47;1.25;;;13.30;99.90;;;;;;4383568;32;20518;-66
2021/09/08 04:12:15;;;;;;;0.70;0.70;;;13.40;99.90;;;;;;4397278;32;20137;-66
2021/09/08 04:14:41;;;;;;;19.77;1.48;;;13.40;99.90;;;;;;4400174;32;20494;-66
2021/09/08 04:17:06;;;;;;;2.37;1.77;;;13.40;99.90;;;;;;4387278;32;20438;-66
2021/09/08 04:19:32;;;;;;;2.22;1.23;;;13.40;99.90;;;;;;4386512;32;20087;-66
2021/09/08 04:21:57;;;;;;;1.30;0.85;;;13.40;99.90;;;;;;4378593;32;20182;-66
2021/09/08 04:24:23;;;;;;;1.85;0.93;;;13.40;99.90;;;;;;4383555;32;20519;-66
2021/09/08 04:26:48;;;;;;;0.85;0.77;;;13.40;99.90;;;;;;4383648;32;20106;-66
2021/09/08 04:29:14;;;;;;;2.67;1.20;;;13.30;99.90;;;;;;4397986;32;20065;-66
2021/09/08 04:31:40;;;;;;;1.23;0.88;;;13.30;99.90;;;;;;4401031;32;20070;-66
2021/09/08 04:34:07;;;;;;;1.30;1.02;;;13.40;99.90;;;;;;4401465;32;20484;-66
2021/09/08 04:36:33;;;;;;;4.00;1.42;;;13.40;99.90;;;;;;4387507;32;20414;-66
2021/09/08 04:38:59;;;;;;;6.70;0.90;;;13.40;99.90;;;;;;4384920;32;20239;-66
2021/09/08 04:41:24;;;;;;;0.93;0.88;;;13.30;99.90;;;;;;4400036;32;20421;-66
2021/09/08 04:43:49;;;;;;;5.32;1.83;;;13.30;99.90;;;;;;4399749;32;20169;-66
2021/09/08 04:46:15;;;;;;;1.00;1.00;;;13.30;99.90;;;;;;4400545;32;20490;-66
2021/09/08 04:48:40;;;;;;;0.60;0.60;;;13.30;99.90;;;;;;4400893;32;20074;-67
2021/09/08 04:51:06;;;;;;;2.75;1.23;;;13.40;99.90;;;;;;4401147;32;20128;-67
2021/09/08 04:53:31;;;;;;;2.47;1.62;;;13.40;99.90;;;;;;4390732;32;20497;-66
2021/09/08 04:55:57;;;;;;;5.78;1.05;;;13.40;99.90;;;;;;4386074;32;20081;-66
2021/09/08 04:58:24;;;;;;;1.85;0.80;;;13.30;99.90;;;;;;4385012;32;20452;-65
2021/09/08 05:00:49;;;;;;;2.17;0.90;;;13.20;99.90;;;;;;4381531;32;20090;-66
2021/09/08 05:03:15;;;;;;;1.08;1.05;;;13.30;99.90;;;;;;4378681;32;20070;-65
2021/09/08 05:05:40;;;;;;;1.67;1.30;;;13.30;99.90;;;;;;4382983;32;20135;-66
2021/09/08 05:08:06;;;;;;;9.38;2.65;;;13.30;99.90;;;;;;4383386;32;20071;-65
2021/09/08 05:10:31;;;;;;;1.77;1.48;;;13.40;99.90;;;;;;4383454;32;20515;-65
2021/09/08 05:12:57;;;;;;;3.80;1.02;;;13.40;99.90;;;;;;4379984;32;20062;-66
2021/09/08 05:15:22;;;;;;;1.12;1.00;;;13.50;99.90;;;;;;4382998;32;20085;-65
2021/09/08 05:17:48;;;;;;;1.70;0.98;;;13.50;99.90;;;;;;4371228;32;20079;-65
2021/09/08 05:20:16;;;;;;;1.10;1.00;;;13.50;99.90;;;;;;4385057;32;20078;-65
2021/09/08 05:22:41;;;;;;;2.90;1.20;;;13.50;99.90;;;;;;4382913;32;20090;-65
2021/09/08 05:25:07;;;;;;;3.97;1.23;;;13.50;99.90;;;;;;4382227;32;20125;-66
2021/09/08 05:27:33;;;;;;;1.98;1.35;;;13.60;99.90;;;;;;4370866;32;20146;-65
2021/09/08 05:29:58;;;;;;;2.37;1.25;;;13.70;99.90;;;;;;4375100;32;20174;-65
2021/09/08 05:32:24;;;;;;;3.60;1.67;;;13.70;99.90;;;;;;4356834;32;20059;-66
2021/09/08 05:34:49;;;;;;;2.78;1.45;;;13.80;99.90;;;;;;4370858;32;20122;-65
2021/09/08 05:37:15;;;;;;;0.80;0.80;;;13.90;99.90;;;;;;4375481;32;20059;-65
2021/09/08 05:39:40;;;;;;;1.00;0.50;;;13.90;99.90;;;;;;4377172;32;20129;-65
2021/09/08 05:42:06;;;;;;;3.85;0.77;;;14.00;99.90;;;;;;4373827;32;20098;-66
2021/09/08 05:44:32;;;;;;;3.03;1.45;;;14.10;99.90;;;;;;4375235;32;20079;-66
2021/09/08 05:46:57;;;;;;;0.60;0.60;;;14.10;99.90;;;;;;4374329;32;20226;-65
2021/09/08 05:49:23;;;;;;;1.98;1.10;;;14.20;99.90;;;;;;4373746;32;20066;-66
2021/09/08 05:51:48;;;;;;;1.35;1.12;;;14.20;99.90;;;;;;4371667;32;20082;-66
2021/09/08 05:54:14;;;;;;;1.42;0.98;;;14.30;99.90;;;;;;4369733;32;20106;-66
2021/09/08 05:56:39;;;;;;;2.12;1.23;;;14.30;99.90;;;;;;4370693;32;20102;-67
2021/09/08 05:59:04;;;;;;;3.03;1.27;;;14.40;99.90;;;;;;4367039;32;20066;-67
2021/09/08 06:01:30;;;;;;;1.08;0.77;;;14.40;99.90;;;;;;4361745;32;20086;-68
2021/09/08 06:03:55;;;;;;;4.30;1.95;;;14.50;99.90;;;;;;4361019;32;20078;-66
2021/09/08 06:06:21;;;;;;;1.58;1.15;;;14.50;99.90;;;;;;4369161;32;20246;-66
2021/09/08 06:08:46;;;;;;;3.12;1.55;;;14.50;99.90;;;;;;4369255;32;20527;-66
2021/09/08 06:11:12;;;;;;;11.75;2.20;;;14.60;99.90;;;;;;4369561;32;20519;-66
2021/09/08 06:13:38;;;;;;;4.55;1.17;;;14.70;99.90;;;;;;4368771;32;20081;-67
2021/09/08 06:16:04;;;;;;;12.55;1.30;;;14.80;99.90;;;;;;4371921;32;20099;-67
2021/09/08 06:18:31;;;;;;;1.15;0.85;;;14.90;99.90;;;;;;4367878;32;20066;-67
2021/09/08 06:20:57;;;;;;;1.37;0.95;;;14.90;99.90;;;;;;4375624;32;20133;-66
2021/09/08 06:23:22;;;;;;;1.05;0.95;;;15.00;99.90;;;;;;4376972;32;152873;-66
2021/09/08 06:25:48;;;;;;;7.10;1.00;;;15.10;99.90;;;;;;4373048;32;20095;-67
2021/09/08 06:28:14;;;;;;;2.58;0.88;;;15.10;99.90;;;;;;4372143;32;20436;-66
2021/09/08 06:30:40;;;;;;;1.25;0.98;;;15.30;99.90;;;;;;4372997;32;20121;-66
2021/09/08 06:33:05;;;;;;;1.45;1.00;;;15.30;99.90;;;;;;4375538;32;20186;-67
2021/09/08 06:35:31;;;;;;;2.75;1.02;;;15.50;99.90;;;;;;4367864;32;20098;-67
2021/09/08 06:37:57;;;;;;;2.03;1.48;;;15.50;99.90;;;;;;4365138;32;20118;-67
2021/09/08 06:40:22;;;;;;;1.77;1.00;;;15.60;99.90;;;;;;4369042;32;20075;-67
2021/09/08 06:42:47;;;;;;;1.45;0.95;;;15.70;99.90;;;;;;4368880;32;20066;-67
2021/09/08 06:45:13;;;;;;;0.60;0.60;;;15.70;99.90;;;;;;4367800;32;20086;-67
2021/09/08 06:47:39;;;;;;;3.72;1.33;;;15.80;99.90;;;;;;4372111;32;20505;-67
2021/09/08 06:50:07;;;;;;;1.62;0.75;;;16.00;99.90;;;;;;4376844;32;20074;-66
2021/09/08 06:52:33;;;;;;;2.92;1.45;;;16.10;99.90;;;;;;4378909;32;20091;-66
2021/09/08 06:54:58;;;;;;;1.33;0.90;;;16.20;99.90;;;;;;4371775;32;20079;-66
2021/09/08 06:57:24;;;;;;;2.30;1.08;;;16.30;99.90;;;;;;4377246;32;20074;-66
2021/09/08 06:59:49;;;;;;;2.15;1.20;;;16.40;99.90;;;;;;4369307;32;20739;-67
2021/09/08 07:02:15;;;;;;;5.45;1.45;;;16.50;99.90;;;;;;4366793;32;20078;-66
2021/09/08 07:04:40;;;;;;;0.85;0.80;;;16.60;99.90;;;;;;4371976;32;20418;-66
2021/09/08 07:07:06;;;;;;;1.52;0.73;;;16.70;99.90;;;;;;4371108;32;20070;-66
2021/09/08 07:09:32;;;;;;;3.20;1.40;;;16.80;99.90;;;;;;4371537;32;20162;-66
2021/09/08 07:11:57;;;;;;;1.80;0.85;;;16.90;99.90;;;;;;4370307;32;20086;-66
2021/09/08 07:14:23;;;;;;;0.80;0.80;;;17.00;99.90;;;;;;4375683;32;20075;-67
2021/09/08 07:16:49;;;;;;;7.12;1.45;;;17.10;99.90;;;;;;4371800;32;20491;-67
2021/09/08 07:19:14;;;;;;;0.73;0.73;;;17.20;99.90;;;;;;4369236;32;20078;-67
2021/09/08 07:21:40;;;;;;;2.97;1.02;;;17.30;99.90;;;;;;4366678;32;20098;-67
2021/09/08 07:24:05;;;;;;;2.40;1.02;;;17.40;99.90;;;;;;4369932;32;20434;-66
2021/09/08 07:26:34;;;;;;;1.67;1.15;;;17.50;99.90;;;;;;4368432;32;20066;-67
2021/09/08 07:29:02;;;;;;;2.60;1.20;;;17.60;99.90;;;;;;4364454;32;21046;-66
2021/09/08 07:31:28;;;;;;;0.60;0.60;;;17.70;99.90;;;;;;4364108;32;20086;-66
2021/09/08 07:33:54;;;;;;;12.73;0.70;;;17.70;99.90;;;;;;4366896;32;20075;-66
2021/09/08 07:36:20;;;;;;;1.23;0.82;;;17.80;99.90;;;;;;4367867;32;20175;-66
2021/09/08 07:38:47;;;;;;;4.57;0.75;;;17.80;99.90;;;;;;4370792;32;20086;-66
2021/09/08 07:41:13;;;;;;;3.92;0.98;;;17.90;99.90;;;;;;4369047;32;20070;-66
2021/09/08 07:43:39;;;;;;;0.80;0.80;;;18.00;99.90;;;;;;4373321;32;20421;-66
2021/09/08 07:46:04;;;;;;;1.12;0.82;;;18.00;99.90;;;;;;4374131;32;20133;-66
2021/09/08 07:48:30;;;;;;;0.88;0.70;;;18.20;99.90;;;;;;4375967;32;20078;-66
2021/09/08 07:50:55;;;;;;;1.02;0.80;;;18.20;99.90;;;;;;4369425;32;20070;-65
2021/09/08 07:53:21;;;;;;;0.73;0.60;;;18.30;99.90;;;;;;4370716;32;20118;-65
2021/09/08 07:55:46;;;;;;;0.60;0.60;;;18.40;99.90;;;;;;4371589;32;20069;-65
2021/09/08 07:58:12;;;;;;;0.88;0.60;;;18.40;99.90;;;;;;4370182;32;20535;-65
2021/09/08 08:00:37;;;;;;;2.75;1.15;;;18.50;99.90;;;;;;4375101;32;20067;-66
2021/09/08 08:03:04;;;;;;;0.60;0.60;;;18.60;99.90;;;;;;4374028;32;20716;-66
2021/09/08 08:05:30;;;;;;;0.70;0.70;;;18.60;99.90;;;;;;4357820;32;20083;-65
2021/09/08 08:07:56;;;;;;;2.20;0.80;;;18.70;99.90;;;;;;4375567;32;20156;-65
2021/09/08 08:10:21;;;;;;;0.45;0.45;;;18.80;99.90;;;;;;4373338;32;20165;-65
2021/09/08 08:12:47;;;;;;;1.52;0.98;;;18.90;99.90;;;;;;4370679;32;20082;-65
2021/09/08 08:15:14;;;;;;;6.20;1.73;;;18.90;99.90;;;;;;4374063;32;20220;-65
2021/09/08 08:17:41;;;;;;;0.75;0.50;;;19.00;99.90;;;;;;4423878;27;20074;-77
2021/09/08 08:20:08;;;;;;;0.55;0.55;;;19.10;99.90;;;;;;4422122;32;20104;-79
2021/09/08 08:22:36;;;;;;;0.75;0.70;;;19.20;99.90;;;;;;4417147;32;20143;-77
2021/09/08 08:25:03;;;;;;;1.90;0.65;;;19.30;99.90;;;;;;4422785;32;20151;-80
2021/09/08 08:27:29;;;;;;;0.75;0.75;;;19.40;99.90;;;;;;4433118;32;20148;-77
2021/09/08 08:29:55;;;;;;;0.70;0.70;;;19.50;99.90;;;;;;4421748;32;20607;-78
2021/09/08 08:32:20;;;;;;;0.60;0.60;;;19.60;99.90;;;;;;4410779;32;20380;-77
2021/09/08 08:34:45;;;;;;;6.55;1.05;;;19.70;99.90;;;;;;4409816;32;20118;-78
2021/09/08 08:37:11;;;;;;;1.70;1.00;;;19.70;99.90;;;;;;4413751;32;20567;-77
2021/09/08 08:39:38;;;;;;;0.93;0.85;;;19.80;99.90;;;;;;4416255;32;20065;-79
2021/09/08 08:42:06;;;;;;;0.50;0.50;;;19.90;99.90;;;;;;4406445;26;20082;-89
2021/09/08 08:44:32;;;;;;;2.83;0.88;;;19.90;99.90;;;;;;4398537;32;20155;-88
2021/09/08 08:47:00;;;;;;;0.60;0.60;;;20.00;99.90;;;;;;4401037;32;20066;-88
2021/09/08 08:49:28;;;;;;;0.60;0.60;;;20.10;99.90;;;;;;4402076;32;20078;-90
2021/09/08 08:51:54;;;;;;;0.70;0.70;;;20.20;99.90;;;;;;4402440;32;20067;-89
2021/09/08 08:54:20;;;;;;;0.50;0.50;;;20.30;99.90;;;;;;4394933;32;20106;-90
2021/09/08 08:56:47;;;;;;;0.82;0.70;;;20.40;99.90;;;;;;4396091;32;20081;-89
2021/09/08 08:59:14;;;;;;;2.65;0.70;;;20.50;99.90;;;;;;4390818;32;20096;-90
2021/09/08 09:01:52;;;;;;;0.65;0.65;;;20.60;99.90;;;;;;4395279;32;20347;-89
2021/09/08 09:04:18;;;;;;;0.47;0.47;;;20.60;99.90;;;;;;4396988;32;20614;-90
2021/09/08 09:06:48;;;;;;;1.23;0.75;;;20.80;99.90;;;;;;4401792;32;20067;-89
2021/09/08 09:09:16;;;;;;;1.33;0.40;;;20.90;99.90;;;;;;4394390;32;20115;-89
2021/09/08 09:11:47;;;;;;;0.50;0.50;;;21.00;99.90;;;;;;4395031;32;20070;-88
2021/09/08 09:14:19;;;;;;;0.65;0.55;;;21.10;99.90;;;;;;4396720;32;20093;-91
2021/09/08 09:16:45;;;;;;;0.75;0.60;;;21.20;99.90;;;;;;4397630;32;20438;-90
2021/09/08 09:19:12;;;;;;;1.90;0.55;;;21.30;99.90;;;;;;4398028;32;20140;-90
2021/09/08 09:21:42;;;;;;;0.40;0.40;;;21.50;99.90;;;;;;4394146;32;20551;-89
2021/09/08 09:24:30;;;;;;;11.10;1.20;;;21.60;99.90;;;;;;4395344;32;20089;-90
2021/09/08 09:26:55;;;;;;;1.90;1.37;;;21.70;99.90;;;;;;4401659;27;20094;-77
2021/09/08 09:29:21;;;;;;;1.55;0.90;;;21.90;99.90;;;;;;4396902;32;20087;-75
2021/09/08 09:31:56;;;;;;;1.00;0.60;;;22.00;99.90;;;;;;4398211;32;20186;-76
2021/09/08 09:34:22;;;;;;;0.57;0.50;;;22.20;99.90;;;;;;4403280;32;20088;-76
2021/09/08 09:36:53;;;;;;;1.75;0.50;;;22.30;99.90;;;;;;4405799;32;20077;-76
2021/09/08 09:39:19;;;;;;;0.40;0.40;;;22.50;99.90;;;;;;4406287;32;20069;-76
2021/09/08 09:41:45;;;;;;;0.55;0.55;;;22.60;99.90;;;;;;4405487;32;20086;-75
2021/09/08 09:44:14;;;;;;;0.55;0.55;;;22.60;99.90;;;;;;4407679;32;20082;-75
2021/09/08 09:46:43;;;;;;;0.85;0.52;;;22.80;99.90;;;;;;4403074;32;20081;-75
2021/09/08 09:49:10;;;;;;;0.40;0.40;;;23.00;99.90;;;;;;4404569;32;20166;-76
2021/09/08 09:51:36;;;;;;;7.45;1.48;;;23.00;99.90;;;;;;4405514;32;20074;-76
2021/09/08 09:54:02;;;;;;;0.80;0.80;;;23.10;99.90;;;;;;4403401;32;20082;-75
2021/09/08 09:56:28;;;;;;;1.73;1.17;;;23.20;99.90;;;;;;4402808;32;20879;-76
2021/09/08 09:58:54;;;;;;;1.48;0.43;;;23.30;99.90;;;;;;4404560;32;20393;-76
2021/09/08 10:01:20;;;;;;;0.60;0.60;;;23.30;99.90;;;;;;4401620;32;20559;-76
2021/09/08 10:03:45;;;;;;;8.38;1.65;;;23.40;99.90;;;;;;4405298;32;20278;-76
2021/09/08 10:06:11;;;;;;;0.57;0.40;;;23.50;99.90;;;;;;4403461;32;20099;-75
2021/09/08 10:08:43;;;;;;;1.75;0.60;;;23.50;99.90;;;;;;4407001;32;20404;-75
2021/09/08 10:11:12;;;;;;;0.30;0.30;;;23.60;99.90;;;;;;4404186;32;20085;-77
2021/09/08 10:13:45;;;;;;;2.87;0.62;;;23.50;99.90;;;;;;4407065;32;20057;-76
2021/09/08 10:16:11;;;;;;;1.10;0.57;;;23.60;99.90;;;;;;4400474;32;20093;-76
2021/09/08 10:18:40;;;;;;;0.62;0.60;;;23.80;99.90;;;;;;4415334;26;20826;-62
2021/09/08 10:21:08;;;;;;;0.93;0.50;;;23.90;99.90;;;;;;4395514;32;20046;-63
2021/09/08 10:23:40;;;;;;;0.50;0.50;;;24.00;99.90;;;;;;4409877;32;20442;-62
2021/09/08 10:26:17;;;;;;;0.90;0.68;;;24.10;99.90;;;;;;4399745;32;20069;-61
2021/09/08 10:28:44;;;;;;;2.03;1.00;;;24.30;99.90;;;;;;4398988;32;20049;-62
2021/09/08 10:31:12;;;;;;;1.25;0.73;;;24.50;99.90;;;;;;4399802;32;20109;-62
2021/09/08 10:33:40;;;;;;;0.60;0.60;;;24.50;99.90;;;;;;4398991;32;20085;-62
2021/09/08 10:36:10;;;;;;;1.23;0.80;;;24.50;99.90;;;;;;4397906;32;20459;-62
2021/09/08 10:38:35;;;;;;;0.47;0.47;;;24.40;99.90;;;;;;4400720;32;20546;-63
2021/09/08 10:41:04;;;;;;;3.90;0.62;;;24.60;99.90;;;;;;4404554;32;20058;-62
2021/09/08 10:43:32;;;;;;;0.22;0.22;;;24.90;99.90;;;;;;4401469;32;20077;-62
2021/09/08 10:45:58;;;;;;;0.13;0.13;;;24.70;99.90;;;;;;4398101;32;20089;-63
2021/09/08 10:48:42;;;;;;;0.45;0.40;;;24.60;99.90;;;;;;4397382;32;20696;-63
2021/09/08 10:51:16;;;;;;;1.87;0.60;;;24.60;99.90;;;;;;4397321;32;20150;-62
2021/09/08 10:53:41;;;;;;;0.22;0.22;;;24.50;99.90;;;;;;4391936;32;20058;-62
2021/09/08 10:56:08;;;;;;;0.50;0.50;;;24.80;99.90;;;;;;4394158;32;20062;-63
2021/09/08 10:58:58;;;;;;;9.55;0.43;;;25.20;99.50;;;;;;4395630;32;20065;-63
2021/09/08 11:01:24;;;;;;;0.35;0.35;;;25.40;99.80;;;;;;4401379;32;20457;-63
2021/09/08 11:03:51;;;;;;;0.30;0.30;;;25.40;99.90;;;;;;4400976;32;20143;-64
2021/09/08 11:06:17;;;;;;;0.37;0.37;;;25.60;99.80;;;;;;4398734;32;20082;-64
2021/09/08 11:08:44;;;;;;;1.00;0.70;;;25.40;99.60;;;;;;4401986;32;20073;-64
2021/09/08 11:11:12;;;;;;;0.75;0.30;;;25.50;98.60;;;;;;4403087;32;20094;-64
2021/09/08 11:13:39;;;;;;;0.62;0.40;;;25.50;98.20;;;;;;4399387;32;20098;-64
2021/09/08 11:16:24;;;;;;;0.13;0.13;;;25.40;99.30;;;;;;4414121;32;20061;-64
2021/09/08 11:18:52;;;;;;;1.05;0.57;;;25.40;99.40;;;;;;4400965;32;20075;-63
2021/09/08 11:21:22;;;;;;;0.35;0.35;;;25.60;99.30;;;;;;4396232;32;20500;-64
2021/09/08 11:23:49;;;;;;;1.23;0.63;;;25.90;98.60;;;;;;4413154;32;20212;-64
2021/09/08 11:26:15;;;;;;;1.00;0.52;;;26.20;98.60;;;;;;4402409;32;20069;-64
2021/09/08 11:28:41;;;;;;;2.30;0.30;;;26.60;98.10;;;;;;4382887;32;20053;-63
2021/09/08 11:31:13;;;;;;;1.12;0.73;;;26.60;97.90;;;;;;4399810;32;20614;-64
2021/09/08 11:33:38;;;;;;;0.30;0.30;;;26.80;97.60;;;;;;4396736;32;20090;-64
2021/09/08 11:36:19;;;;;;;1.12;0.40;;;27.10;97.40;;;;;;4396257;32;20074;-64
2021/09/08 11:38:49;;;;;;;0.40;0.40;;;27.20;95.90;;;;;;4398533;32;20057;-64
2021/09/08 11:41:17;;;;;;;1.08;0.62;;;27.60;95.30;;;;;;4397268;32;20058;-64
2021/09/08 11:43:47;;;;;;;4.18;0.70;;;27.70;94.70;;;;;;4398715;32;20142;-64
2021/09/08 11:46:23;;;;;;;1.08;0.28;;;27.50;95.10;;;;;;4394888;32;20554;-65
2021/09/08 11:48:52;;;;;;;0.15;0.15;;;27.70;95.10;;;;;;4396516;32;20065;-64
2021/09/08 11:51:20;;;;;;;0.20;0.20;;;27.60;94.40;;;;;;4400140;32;20436;-64
2021/09/08 11:53:49;;;;;;;0.40;0.40;;;27.90;93.90;;;;;;4410428;32;20094;-65
2021/09/08 11:56:17;;;;;;;0.40;0.37;;;27.80;93.80;;;;;;4403865;32;20412;-66
2021/09/08 11:58:44;;;;;;;0.35;0.35;;;27.90;93.80;;;;;;4404436;32;20066;-65
2021/09/08 12:01:13;;;;;;;2.75;0.77;;;28.40;93.90;;;;;;4403461;32;20082;-64
2021/09/08 12:03:42;;;;;;;0.77;0.40;;;28.40;93.20;;;;;;4403148;32;20089;-65
2021/09/08 12:06:11;;;;;;;0.25;0.25;;;28.30;93.20;;;;;;4404741;32;20505;-64
2021/09/08 12:08:37;;;;;;;0.60;0.60;;;28.50;93.40;;;;;;4406322;32;20408;-65
2021/09/08 12:11:04;;;;;;;0.37;0.35;;;28.90;93.00;;;;;;4401978;32;20398;-65
2021/09/08 12:13:33;;;;;;;0.62;0.50;;;29.10;92.20;;;;;;4407002;32;20108;-65
2021/09/08 12:16:00;;;;;;;0.30;0.30;;;29.20;92.30;;;;;;4404515;32;20073;-65
2021/09/08 12:18:26;;;;;;;0.57;0.20;;;29.00;92.40;;;;;;4401807;32;20523;-65
2021/09/08 12:20:51;;;;;;;0.40;0.40;;;29.30;91.80;;;;;;4404107;32;20144;-66
2021/09/08 12:23:28;;;;;;;0.30;0.30;;;29.30;91.90;;;;;;4400750;32;20081;-66
2021/09/08 12:26:04;;;;;;;1.92;0.35;;;29.40;92.20;;;;;;4392162;32;20176;-65
2021/09/08 12:28:29;;;;;;;0.47;0.47;;;29.50;91.20;;;;;;4385101;32;20074;-65
2021/09/08 12:31:17;;;;;;;0.85;0.40;;;29.80;90.90;;;;;;4394092;32;21029;-65
2021/09/08 12:33:53;;;;;;;0.15;0.15;;;30.30;89.80;;;;;;4400043;32;20082;-66
2021/09/08 12:36:18;;;;;;;0.43;0.43;;;30.10;89.40;;;;;;4401245;32;20064;-65
2021/09/08 12:38:49;;;;;;;2.78;0.70;;;30.20;89.70;;;;;;4399110;32;20081;-65
2021/09/08 12:41:32;;;;;;;2.15;0.35;;;30.20;90.20;;;;;;4397802;32;20663;-66
2021/09/08 12:44:00;;;;;;;0.55;0.50;;;30.30;86.10;;;;;;4401557;32;20113;-65